Northeast, Tennessee
Current Conditions -  °F | °C
As of 12:53 AM on Sunday 26 Oct 2014 (Local Time) from KBNA Reporting Station
Haze Haze  
Wind Chill: 58°   Ceiling: Unl
Heat Index: 58°   Visibility: 5mi
Dew Point: 57°   Wind: 5mph
Humidity: 97%   Direction: 190°S
Pressure: 30.02"   Gusts: NA
Location:  36.2387°N, 86.78°W
Report Text: KBNA 260553Z 19004KT 5SM BR CLR 14/14 A3002 RMK AO2 SLP159 T01440139 10211 20144 402720067 56006
Loading
Personal Weather Stations






























Interactive Weather Map
Tropical Storm Tracking
New forecast layout! Learn more

10-Day Weather Forecast

Advertisements
Track Severe Weather on mobile